createdAt,value
2022-12-24T00:01:28.544Z,7.50
2022-12-24T00:03:56.078Z,7.00
2022-12-24T00:06:25.755Z,7.70
2022-12-24T00:08:55.327Z,8.00
2022-12-24T00:11:22.381Z,7.70
2022-12-24T00:13:49.412Z,7.10
2022-12-24T00:16:16.260Z,7.80
2022-12-24T00:18:46.581Z,7.10
2022-12-24T00:21:15.827Z,6.80
2022-12-24T00:23:43.027Z,7.50
2022-12-24T00:26:09.533Z,6.80
2022-12-24T00:28:37.439Z,7.10
2022-12-24T00:31:12.732Z,7.20
2022-12-24T00:33:39.710Z,6.60
2022-12-24T00:36:09.439Z,7.00
2022-12-24T00:38:36.049Z,7.60
2022-12-24T00:41:05.189Z,8.00
2022-12-24T00:43:32.912Z,7.40
2022-12-24T00:45:59.684Z,7.50
2022-12-24T00:48:27.543Z,8.10
2022-12-24T00:50:54.165Z,7.70
2022-12-24T00:53:22.745Z,8.20
2022-12-24T00:55:49.233Z,7.80
2022-12-24T00:58:15.951Z,6.30
2022-12-24T01:00:42.571Z,7.80
2022-12-24T01:03:12.569Z,7.40
2022-12-24T01:05:39.408Z,7.00
2022-12-24T01:08:08.618Z,7.00
2022-12-24T01:10:36.368Z,8.30
2022-12-24T01:13:03.880Z,7.50
2022-12-24T01:15:30.795Z,7.60
2022-12-24T01:17:59.918Z,7.10
2022-12-24T01:20:31.705Z,8.10
2022-12-24T01:22:58.778Z,7.70
2022-12-24T01:25:25.274Z,8.60
2022-12-24T01:27:51.891Z,6.40
2022-12-24T01:30:20.871Z,8.00
2022-12-24T01:32:48.864Z,7.90
2022-12-24T01:35:15.498Z,7.30
2022-12-24T01:37:43.523Z,8.10
2022-12-24T01:40:34.689Z,8.40
2022-12-24T01:43:19.909Z,8.50
2022-12-24T01:45:50.840Z,7.10
2022-12-24T01:48:41.251Z,8.20
2022-12-24T01:51:36.073Z,7.70
2022-12-24T01:54:11.292Z,7.10
2022-12-24T01:56:46.674Z,5.80
2022-12-24T01:59:18.726Z,6.40
2022-12-24T02:01:51.518Z,6.70
2022-12-24T02:04:38.103Z,6.80
2022-12-24T02:07:07.026Z,6.90
2022-12-24T02:09:36.758Z,7.40
2022-12-24T02:12:06.282Z,6.90
2022-12-24T02:14:34.751Z,6.60
2022-12-24T02:17:18.516Z,6.50
2022-12-24T02:20:00.459Z,6.40
2022-12-24T02:22:49.373Z,5.60
2022-12-24T02:25:44.124Z,5.80
2022-12-24T02:28:39.707Z,7.10
2022-12-24T02:31:16.106Z,6.40
2022-12-24T02:34:15.649Z,7.50
2022-12-24T02:37:13.336Z,6.60
2022-12-24T02:39:47.016Z,6.40
2022-12-24T02:42:20.164Z,6.50
2022-12-24T02:44:56.557Z,6.10
2022-12-24T02:47:26.997Z,6.90
2022-12-24T02:49:54.992Z,6.20
2022-12-24T02:52:40.152Z,5.70
2022-12-24T02:55:39.831Z,6.50
2022-12-24T02:58:51.750Z,6.20
2022-12-24T03:01:43.715Z,7.00
2022-12-24T03:04:39.750Z,6.50
2022-12-24T03:07:21.669Z,6.60
2022-12-24T03:10:23.902Z,6.30
2022-12-24T03:12:56.670Z,5.80
2022-12-24T03:15:25.873Z,6.00
2022-12-24T03:17:57.232Z,5.80
2022-12-24T03:20:37.427Z,6.00
2022-12-24T03:23:05.427Z,6.30
2022-12-24T03:25:33.719Z,5.60
2022-12-24T03:28:04.888Z,6.00
2022-12-24T03:30:32.008Z,6.30
2022-12-24T03:33:00.713Z,6.10
2022-12-24T03:35:27.493Z,6.10
2022-12-24T03:37:58.276Z,6.00
2022-12-24T03:40:25.250Z,5.80
2022-12-24T03:42:52.399Z,6.20
2022-12-24T03:45:20.163Z,5.30
2022-12-24T03:47:47.072Z,5.60
2022-12-24T03:50:14.478Z,5.10
2022-12-24T03:52:41.095Z,5.20
2022-12-24T03:55:07.982Z,5.40
2022-12-24T03:57:35.155Z,5.90
2022-12-24T04:00:07.598Z,6.10
2022-12-24T04:02:40.999Z,6.00
2022-12-24T04:05:13.195Z,6.10
2022-12-24T04:07:39.719Z,5.50
2022-12-24T04:10:06.732Z,5.10
2022-12-24T04:12:36.379Z,4.10
2022-12-24T04:15:03.537Z,5.00
2022-12-24T04:17:32.364Z,4.40
2022-12-24T04:20:03.468Z,5.30
2022-12-24T04:22:30.076Z,5.10
2022-12-24T04:24:56.776Z,5.70
2022-12-24T04:27:28.401Z,5.40
2022-12-24T04:29:57.805Z,5.10
2022-12-24T04:32:27.801Z,5.50
2022-12-24T04:34:55.442Z,4.90
2022-12-24T04:37:22.064Z,4.30
2022-12-24T04:39:48.714Z,4.80
2022-12-24T04:42:16.996Z,4.30
2022-12-24T04:44:43.601Z,5.10
2022-12-24T04:47:11.434Z,4.60
2022-12-24T04:49:38.093Z,4.40
2022-12-24T04:52:05.343Z,4.80
2022-12-24T04:54:33.189Z,4.40
2022-12-24T04:57:00.406Z,5.10
2022-12-24T04:59:28.058Z,5.70
2022-12-24T05:01:56.169Z,4.80
2022-12-24T05:04:26.926Z,4.30
2022-12-24T05:06:53.515Z,4.20
2022-12-24T05:09:20.494Z,4.80
2022-12-24T05:11:48.117Z,4.70
2022-12-24T05:14:14.691Z,4.80
2022-12-24T05:16:49.389Z,4.20
2022-12-24T05:19:16.910Z,5.50
2022-12-24T05:21:44.870Z,4.60
2022-12-24T05:24:30.674Z,4.70
2022-12-24T05:26:59.938Z,5.10
2022-12-24T05:29:28.326Z,5.00
2022-12-24T05:31:56.857Z,4.30
2022-12-24T05:34:24.597Z,5.00
2022-12-24T05:36:51.029Z,4.80
2022-12-24T05:39:20.593Z,4.90
2022-12-24T05:41:47.707Z,4.60
2022-12-24T05:44:18.353Z,5.40
2022-12-24T05:46:45.411Z,5.00
2022-12-24T05:49:14.947Z,5.20
2022-12-24T05:51:44.340Z,5.80
2022-12-24T05:54:10.995Z,4.80
2022-12-24T05:56:38.595Z,5.30
2022-12-24T05:59:07.897Z,4.80
2022-12-24T06:01:34.549Z,4.90
2022-12-24T06:04:04.234Z,5.00
2022-12-24T06:06:31.263Z,4.40
2022-12-24T06:08:59.296Z,5.40
2022-12-24T06:11:27.781Z,5.40
2022-12-24T06:13:56.544Z,5.10
2022-12-24T06:16:25.385Z,4.50
2022-12-24T06:18:53.506Z,5.10
2022-12-24T06:21:20.563Z,4.80
2022-12-24T06:23:48.329Z,4.70
2022-12-24T06:26:20.470Z,4.10
2022-12-24T06:28:49.542Z,4.80
2022-12-24T06:31:20.030Z,4.60
2022-12-24T06:33:47.303Z,4.40
2022-12-24T06:36:18.457Z,4.50
2022-12-24T06:38:47.714Z,4.40
2022-12-24T06:41:15.529Z,4.50
2022-12-24T06:43:45.154Z,4.00
2022-12-24T06:46:13.634Z,4.30
2022-12-24T06:48:44.112Z,4.40
2022-12-24T06:51:14.664Z,3.80
2022-12-24T06:53:41.262Z,4.00
2022-12-24T06:56:11.987Z,4.00
2022-12-24T06:58:41.238Z,3.70
2022-12-24T07:01:12.337Z,3.70
2022-12-24T07:03:39.657Z,3.10
2022-12-24T07:06:06.858Z,3.90
2022-12-24T07:08:38.898Z,3.40
2022-12-24T07:11:06.832Z,3.60
2022-12-24T07:13:34.472Z,3.00
2022-12-24T07:16:03.652Z,3.50
2022-12-24T07:18:32.128Z,3.60
2022-12-24T07:20:59.311Z,3.50
2022-12-24T07:23:25.876Z,3.50
2022-12-24T07:25:52.873Z,3.30
2022-12-24T07:28:25.483Z,3.20
2022-12-24T07:30:54.509Z,3.60
2022-12-24T07:33:21.424Z,3.20
2022-12-24T07:35:55.695Z,3.30
2022-12-24T07:38:22.702Z,3.40
2022-12-24T07:40:49.611Z,3.30
2022-12-24T07:43:17.212Z,3.50
2022-12-24T07:45:43.755Z,3.50
2022-12-24T07:48:10.673Z,3.50
2022-12-24T07:50:39.828Z,3.90
2022-12-24T07:53:06.740Z,3.10
2022-12-24T07:55:33.257Z,3.50
2022-12-24T07:58:01.141Z,3.50
2022-12-24T08:00:27.946Z,2.90
2022-12-24T08:03:00.380Z,3.00
2022-12-24T08:05:27.686Z,3.30
2022-12-24T08:07:55.341Z,3.10
2022-12-24T08:10:22.496Z,2.90
2022-12-24T08:12:50.181Z,3.20
2022-12-24T08:15:19.152Z,3.10
2022-12-24T08:17:45.746Z,3.20
2022-12-24T08:20:17.654Z,3.30
2022-12-24T08:22:45.332Z,2.80
2022-12-24T08:25:12.958Z,3.00
2022-12-24T08:27:40.550Z,2.80
2022-12-24T08:30:09.533Z,2.50
2022-12-24T08:32:36.227Z,2.60
2022-12-24T08:35:03.203Z,2.30
2022-12-24T08:37:29.679Z,2.50
2022-12-24T08:39:57.701Z,2.80
2022-12-24T08:42:24.909Z,2.80
2022-12-24T08:44:51.682Z,2.30
2022-12-24T08:47:18.421Z,2.50
2022-12-24T08:49:46.185Z,2.30
2022-12-24T08:52:12.678Z,2.80
2022-12-24T08:54:39.422Z,2.80
2022-12-24T08:57:06.984Z,2.80
2022-12-24T08:59:33.868Z,2.80
2022-12-24T09:02:01.790Z,2.70
2022-12-24T09:04:29.553Z,2.60
2022-12-24T09:06:56.096Z,2.40
2022-12-24T09:09:24.665Z,2.50
2022-12-24T09:11:51.476Z,2.20
2022-12-24T09:14:17.956Z,2.80
2022-12-24T09:16:45.635Z,2.50
2022-12-24T09:19:13.923Z,2.90
2022-12-24T09:21:42.102Z,2.70
2022-12-24T09:24:08.736Z,3.10
2022-12-24T09:26:37.823Z,3.00
2022-12-24T09:29:04.712Z,3.10
2022-12-24T09:31:31.493Z,3.20
2022-12-24T09:34:00.134Z,3.60
2022-12-24T09:36:27.801Z,3.10
2022-12-24T09:38:55.097Z,3.20
2022-12-24T09:41:47.543Z,3.00
2022-12-24T09:44:37.181Z,2.90
2022-12-24T09:47:11.566Z,3.30
2022-12-24T09:49:43.999Z,3.30
2022-12-24T09:52:35.320Z,3.40
2022-12-24T09:55:13.966Z,3.40
2022-12-24T09:57:42.025Z,3.80
2022-12-24T10:00:22.202Z,4.10
2022-12-24T10:02:49.340Z,4.30
2022-12-24T10:05:24.395Z,3.60
2022-12-24T10:08:28.723Z,3.50
2022-12-24T10:11:26.002Z,3.10
2022-12-24T10:13:55.490Z,3.40
2022-12-24T10:16:59.671Z,3.50
2022-12-24T10:19:43.451Z,3.40
2022-12-24T10:22:48.953Z,3.50
2022-12-24T10:25:23.126Z,3.20
2022-12-24T10:27:54.689Z,3.70
2022-12-24T10:30:23.143Z,3.60
2022-12-24T10:32:53.987Z,4.00
2022-12-24T10:35:29.539Z,3.80
2022-12-24T10:37:58.389Z,4.00
2022-12-24T10:40:48.625Z,4.30
2022-12-24T10:43:25.570Z,4.10
2022-12-24T10:48:30.638Z,4.20
2022-12-24T10:51:08.237Z,4.50
2022-12-24T10:53:54.748Z,4.50
2022-12-24T10:56:21.662Z,4.00
2022-12-24T10:58:54.858Z,4.30
2022-12-24T11:01:45.786Z,4.50
2022-12-24T11:04:18.363Z,4.90
2022-12-24T11:06:57.100Z,4.70
2022-12-24T11:09:28.032Z,5.00
2022-12-24T11:12:00.449Z,4.50
2022-12-24T11:14:40.900Z,4.70
2022-12-24T11:17:19.494Z,4.90
2022-12-24T11:19:49.772Z,5.30
2022-12-24T11:22:33.824Z,5.50
2022-12-24T11:25:19.317Z,5.20
2022-12-24T11:27:50.603Z,5.80
2022-12-24T11:30:17.131Z,5.60
2022-12-24T11:33:12.499Z,5.10
2022-12-24T11:35:44.350Z,4.50
2022-12-24T11:38:20.412Z,4.80
2022-12-24T11:40:59.081Z,5.00
2022-12-24T11:43:44.765Z,3.70
2022-12-24T11:46:37.876Z,4.60
2022-12-24T11:49:12.915Z,5.00
2022-12-24T11:52:02.363Z,5.20
2022-12-24T11:54:36.936Z,4.30
2022-12-24T11:57:07.585Z,4.70
2022-12-24T11:59:43.129Z,5.70
2022-12-24T12:02:23.503Z,5.00
2022-12-24T12:04:58.085Z,4.20
2022-12-24T12:07:30.458Z,4.50
2022-12-24T12:10:05.160Z,4.90
2022-12-24T12:12:38.837Z,5.40
2022-12-24T12:15:15.774Z,5.20
2022-12-24T12:17:50.680Z,5.40
2022-12-24T12:20:28.000Z,6.30
2022-12-24T12:23:04.981Z,5.50
2022-12-24T12:25:41.809Z,6.40
2022-12-24T12:28:36.888Z,6.00
2022-12-24T12:31:15.838Z,4.90
2022-12-24T12:34:05.757Z,5.30
2022-12-24T12:36:49.416Z,5.30
2022-12-24T12:39:21.301Z,5.60
2022-12-24T12:42:08.404Z,6.30
2022-12-24T12:44:45.191Z,6.40
2022-12-24T12:47:20.185Z,6.60
2022-12-24T12:50:04.548Z,6.10
2022-12-24T12:53:05.477Z,6.70
2022-12-24T12:56:00.236Z,7.80
2022-12-24T12:58:53.547Z,6.30
2022-12-24T13:01:33.317Z,6.00
2022-12-24T13:04:28.154Z,6.90
2022-12-24T13:07:15.613Z,7.60
2022-12-24T13:10:07.558Z,6.30
2022-12-24T13:13:04.976Z,6.60
2022-12-24T13:16:07.191Z,6.60
2022-12-24T13:18:45.063Z,7.00
2022-12-24T13:21:28.423Z,7.00
2022-12-24T13:24:26.252Z,7.80
2022-12-24T13:27:03.640Z,6.70
2022-12-24T13:29:45.155Z,6.00
2022-12-24T13:32:20.646Z,6.10
2022-12-24T13:35:18.119Z,5.90
2022-12-24T13:37:55.398Z,5.40
2022-12-24T13:40:25.258Z,5.10
2022-12-24T13:43:08.850Z,5.90
2022-12-24T13:45:38.588Z,5.10
2022-12-24T13:48:11.015Z,5.60
2022-12-24T13:50:55.525Z,5.50
2022-12-24T13:53:44.809Z,5.00
2022-12-24T13:56:14.596Z,4.50
2022-12-24T13:58:47.186Z,4.50
2022-12-24T14:01:20.365Z,4.40
2022-12-24T14:03:55.724Z,3.70
2022-12-24T14:06:28.201Z,4.30
2022-12-24T14:08:59.277Z,3.80
2022-12-24T14:11:28.364Z,4.10
2022-12-24T14:14:03.869Z,5.20
2022-12-24T14:16:41.639Z,3.30
2022-12-24T14:19:22.954Z,3.60
2022-12-24T14:22:04.529Z,3.20
2022-12-24T14:24:37.421Z,4.60
2022-12-24T14:27:36.773Z,4.20
2022-12-24T14:30:30.124Z,4.10
2022-12-24T14:32:57.203Z,4.30
2022-12-24T14:35:35.560Z,4.40
2022-12-24T14:38:21.745Z,4.10
2022-12-24T14:41:15.288Z,3.80
2022-12-24T14:44:18.662Z,3.60
2022-12-24T14:47:06.500Z,3.50
2022-12-24T14:49:51.295Z,3.80
2022-12-24T14:53:08.311Z,5.50
2022-12-24T14:55:48.455Z,3.90
2022-12-24T14:58:21.402Z,4.50
2022-12-24T15:00:49.930Z,4.00
2022-12-24T15:03:22.784Z,4.00
2022-12-24T15:05:55.450Z,3.80
2022-12-24T15:08:32.228Z,3.60
2022-12-24T15:11:06.132Z,3.60
2022-12-24T15:13:47.301Z,3.60
2022-12-24T15:16:22.310Z,5.80
2022-12-24T15:18:55.337Z,4.30
2022-12-24T15:21:32.691Z,4.50
2022-12-24T15:24:02.263Z,4.10
2022-12-24T15:26:36.711Z,5.60
2022-12-24T15:29:25.963Z,5.20
2022-12-24T15:31:56.177Z,5.10
2022-12-24T15:34:29.433Z,4.20
2022-12-24T15:37:13.259Z,3.70
2022-12-24T15:39:42.023Z,3.50
2022-12-24T15:42:18.779Z,3.70
2022-12-24T15:45:06.276Z,3.30
2022-12-24T15:47:40.507Z,4.10
2022-12-24T15:50:32.698Z,4.90
2022-12-24T15:53:21.170Z,4.30
2022-12-24T15:56:14.322Z,4.40
2022-12-24T15:58:45.062Z,5.40
2022-12-24T16:01:28.657Z,4.00
2022-12-24T16:03:58.011Z,3.80
2022-12-24T16:06:29.666Z,3.40
2022-12-24T16:08:56.633Z,5.20
2022-12-24T16:11:35.213Z,4.60
2022-12-24T16:14:20.271Z,4.20
2022-12-24T16:16:52.760Z,3.80
2022-12-24T16:19:27.808Z,4.60
2022-12-24T16:24:55.725Z,4.50
2022-12-24T16:27:23.458Z,4.80
2022-12-24T16:29:50.511Z,4.90
2022-12-24T16:32:27.099Z,4.80
2022-12-24T16:34:54.244Z,4.60
2022-12-24T16:37:20.782Z,4.80
2022-12-24T16:39:49.224Z,4.80
2022-12-24T16:42:37.793Z,5.10
2022-12-24T16:45:06.405Z,4.10
2022-12-24T16:47:42.423Z,3.10
2022-12-24T16:50:16.767Z,3.30
2022-12-24T16:52:43.499Z,3.50
2022-12-24T16:55:14.399Z,4.30
2022-12-24T16:57:43.473Z,3.40
2022-12-24T17:03:01.579Z,3.50
2022-12-24T17:05:28.492Z,3.90
2022-12-24T17:07:55.738Z,3.00
2022-12-24T17:10:22.653Z,3.50
2022-12-24T17:12:49.569Z,3.90
2022-12-24T17:15:16.107Z,3.30
2022-12-24T17:17:45.057Z,3.00
2022-12-24T17:20:12.254Z,3.60
2022-12-24T17:22:40.158Z,3.20
2022-12-24T17:25:08.272Z,3.50
2022-12-24T17:27:35.855Z,2.80
2022-12-24T17:30:02.942Z,2.90
2022-12-24T17:32:29.939Z,2.60
2022-12-24T17:34:56.988Z,2.70
2022-12-24T17:37:23.545Z,3.40
2022-12-24T17:39:50.054Z,4.60
2022-12-24T17:42:18.177Z,4.00
2022-12-24T17:44:46.403Z,3.40
2022-12-24T17:47:12.870Z,3.00
2022-12-24T17:49:40.566Z,3.20
2022-12-24T17:52:09.317Z,2.70
2022-12-24T17:54:36.141Z,3.20
2022-12-24T17:57:03.894Z,3.80
2022-12-24T17:59:32.585Z,3.30
2022-12-24T18:02:03.161Z,3.50
2022-12-24T18:04:30.395Z,3.30
2022-12-24T18:07:02.408Z,4.10
2022-12-24T18:09:30.982Z,3.00
2022-12-24T18:11:58.317Z,3.80
2022-12-24T18:14:26.687Z,2.90
2022-12-24T18:16:53.261Z,3.70
2022-12-24T18:19:20.874Z,4.00
2022-12-24T18:21:49.213Z,3.80
2022-12-24T18:24:17.482Z,3.40
2022-12-24T18:26:46.006Z,3.20
2022-12-24T18:29:13.144Z,3.90
2022-12-24T18:31:40.746Z,3.90
2022-12-24T18:34:13.222Z,3.50
2022-12-24T18:36:39.756Z,3.90
2022-12-24T18:39:06.254Z,3.10
2022-12-24T18:41:35.264Z,3.50
2022-12-24T18:44:04.055Z,3.50
2022-12-24T18:46:40.520Z,3.00
2022-12-24T18:49:07.225Z,3.30
2022-12-24T18:51:35.716Z,2.50
2022-12-24T18:54:06.954Z,2.90
2022-12-24T18:56:33.709Z,2.90
2022-12-24T18:59:02.136Z,3.10
2022-12-24T19:01:34.328Z,2.10
2022-12-24T19:04:01.665Z,3.30
2022-12-24T19:06:28.343Z,3.20
2022-12-24T19:08:57.615Z,2.70
2022-12-24T19:11:26.740Z,3.20
2022-12-24T19:14:00.968Z,2.80
2022-12-24T19:16:33.324Z,3.30
2022-12-24T19:19:04.016Z,3.10
2022-12-24T19:21:30.615Z,2.70
2022-12-24T19:23:57.139Z,2.70
2022-12-24T19:26:27.253Z,2.90
2022-12-24T19:28:55.312Z,3.60
2022-12-24T19:31:25.353Z,4.40
2022-12-24T19:33:55.878Z,3.00
2022-12-24T19:36:26.424Z,3.20
2022-12-24T19:38:53.068Z,3.00
2022-12-24T19:41:28.031Z,3.00
2022-12-24T19:43:59.583Z,3.60
2022-12-24T19:46:29.685Z,2.80
2022-12-24T19:49:00.561Z,2.90
2022-12-24T19:51:28.604Z,7.50
2022-12-24T19:53:57.237Z,7.30
2022-12-24T19:56:29.849Z,18.40
2022-12-24T19:59:00.392Z,3.40
2022-12-24T20:01:30.314Z,3.40
2022-12-24T20:03:57.923Z,3.10
2022-12-24T20:06:30.567Z,3.10
2022-12-24T20:09:09.378Z,3.40
2022-12-24T20:11:37.887Z,2.70
2022-12-24T20:14:07.292Z,2.20
2022-12-24T20:16:38.519Z,3.10
2022-12-24T20:19:06.997Z,3.50
2022-12-24T20:21:35.679Z,2.80
2022-12-24T20:24:04.413Z,2.90
2022-12-24T20:26:31.086Z,2.60
2022-12-24T20:28:58.298Z,2.90
2022-12-24T20:31:28.781Z,2.80
2022-12-24T20:33:56.657Z,2.60
2022-12-24T20:36:25.090Z,3.50
2022-12-24T20:38:53.335Z,3.60
2022-12-24T20:41:23.652Z,3.30
2022-12-24T20:43:52.380Z,3.70
2022-12-24T20:46:24.097Z,3.00
2022-12-24T20:48:54.197Z,3.10
2022-12-24T20:51:25.596Z,3.00
2022-12-24T20:53:57.903Z,3.10
2022-12-24T20:56:26.170Z,3.30
2022-12-24T20:58:53.745Z,3.00
2022-12-24T21:01:25.197Z,3.40
2022-12-24T21:03:54.294Z,3.50
2022-12-24T21:06:22.359Z,3.30
2022-12-24T21:08:52.903Z,3.30
2022-12-24T21:11:38.689Z,3.80
2022-12-24T21:14:07.636Z,3.20
2022-12-24T21:16:35.398Z,3.20
2022-12-24T21:19:04.737Z,3.20
2022-12-24T21:21:36.529Z,3.00
2022-12-24T21:24:04.726Z,4.00
2022-12-24T21:26:33.042Z,3.10
2022-12-24T21:29:01.419Z,2.80
2022-12-24T21:31:28.178Z,4.20
2022-12-24T21:33:55.669Z,2.60
2022-12-24T21:36:23.936Z,3.00
2022-12-24T21:38:51.159Z,3.20
2022-12-24T21:41:26.906Z,3.40
2022-12-24T21:43:54.811Z,2.50
2022-12-24T21:46:25.449Z,3.40
2022-12-24T21:49:16.483Z,3.10
2022-12-24T21:51:45.999Z,2.60
2022-12-24T21:54:28.721Z,3.10
2022-12-24T21:57:23.031Z,2.80
2022-12-24T21:59:52.484Z,2.70
2022-12-24T22:02:22.897Z,3.20
2022-12-24T22:04:51.591Z,8.80
2022-12-24T22:07:43.934Z,6.30
2022-12-24T22:10:31.265Z,3.60
2022-12-24T22:13:07.473Z,3.40
2022-12-24T22:15:37.475Z,3.40
2022-12-24T22:18:04.414Z,3.40
2022-12-24T22:20:36.087Z,3.40
2022-12-24T22:23:03.977Z,3.40
2022-12-24T22:25:34.894Z,2.90
2022-12-24T22:28:01.595Z,2.70
2022-12-24T22:30:28.484Z,3.60
2022-12-24T22:32:55.144Z,3.50
2022-12-24T22:35:21.886Z,3.50
2022-12-24T22:37:54.559Z,3.40
2022-12-24T22:40:28.256Z,3.60
2022-12-24T22:42:55.247Z,3.70
2022-12-24T22:45:23.092Z,4.10
2022-12-24T22:47:52.581Z,4.00
2022-12-24T22:50:19.721Z,4.90
2022-12-24T22:52:47.028Z,3.90
2022-12-24T22:55:13.597Z,4.30
2022-12-24T22:57:41.797Z,3.50
2022-12-24T23:00:36.029Z,4.00
2022-12-24T23:03:06.656Z,3.80
2022-12-24T23:05:34.656Z,4.50
2022-12-24T23:08:02.924Z,4.10
2022-12-24T23:10:29.803Z,4.40
2022-12-24T23:13:15.731Z,4.60
2022-12-24T23:15:46.672Z,4.20
2022-12-24T23:18:14.198Z,4.70
2022-12-24T23:20:45.394Z,4.80
2022-12-24T23:23:13.716Z,4.20
2022-12-24T23:25:40.549Z,4.70
2022-12-24T23:28:07.360Z,4.50
2022-12-24T23:30:34.073Z,4.00
2022-12-24T23:33:03.823Z,4.80
2022-12-24T23:35:30.723Z,4.00
2022-12-24T23:37:57.361Z,4.40
2022-12-24T23:40:28.663Z,3.80
2022-12-24T23:42:55.149Z,4.80
2022-12-24T23:45:23.297Z,4.90
2022-12-24T23:47:50.951Z,4.70
2022-12-24T23:50:17.921Z,5.00
2022-12-24T23:52:45.752Z,4.30
2022-12-24T23:55:18.361Z,4.10
2022-12-24T23:57:45.433Z,4.30
